Time;durP1;ratioP1;P1;durP2;ratioP2;P2;SDS_P1;SDS_P2;PMS_P1;PMS_P2;Temp;Humidity;BMP_temperature;BMP_pressure;BME280_temperature;BME280_humidity;BME280_pressure;Samples;Min_cycle;Max_cycle;Signal;HPM_P1;HPM_P2
2023/03/26 00:00:08;;;;;;;0.35;0.35;;;;;;;;;;5068215;28;20029;-74
2023/03/26 00:02:39;;;;;;;1.13;1.13;;;;;;;;;;5068038;28;20553;-71
2023/03/26 00:05:06;;;;;;;0.10;0.10;;;;;;;;;;5068357;28;20158;-71
2023/03/26 00:07:31;;;;;;;8.57;3.03;;;;;;;;;;5067697;28;20039;-72
2023/03/26 00:09:57;;;;;;;2.90;2.58;;;;;;;;;;5068625;28;20040;-70
2023/03/26 00:12:23;;;;;;;0.10;0.10;;;;;;;;;;5068128;28;20044;-70
2023/03/26 00:14:50;;;;;;;0.40;0.40;;;;;;;;;;5068529;28;20375;-69
2023/03/26 00:17:16;;;;;;;4.85;4.32;;;;;;;;;;5050114;28;20112;-70
2023/03/26 00:19:41;;;;;;;0.50;0.50;;;;;;;;;;5033941;28;20131;-72
2023/03/26 00:22:10;;;;;;;0.85;0.63;;;;;;;;;;5068082;28;20056;-70
2023/03/26 00:24:36;;;;;;;0.10;0.10;;;;;;;;;;5068055;28;20098;-69
2023/03/26 00:27:01;;;;;;;0.77;0.77;;;;;;;;;;5050003;28;20060;-70
2023/03/26 00:29:27;;;;;;;1.48;1.33;;;;;;;;;;5050050;28;20060;-69
2023/03/26 00:31:52;;;;;;;0.28;0.20;;;;;;;;;;5067789;28;20451;-69
2023/03/26 00:34:18;;;;;;;0.50;0.50;;;;;;;;;;5067923;28;20040;-69
2023/03/26 00:36:45;;;;;;;0.75;0.75;;;;;;;;;;5052684;28;20041;-70
2023/03/26 00:39:11;;;;;;;0.40;0.40;;;;;;;;;;5053604;28;20032;-69
2023/03/26 00:41:41;;;;;;;0.70;0.70;;;;;;;;;;5071677;28;20029;-69
2023/03/26 00:44:07;;;;;;;1.23;1.23;;;;;;;;;;5070327;28;20503;-69
2023/03/26 00:46:32;;;;;;;6.00;0.88;;;;;;;;;;5053809;28;20037;-69
2023/03/26 00:48:58;;;;;;;0.20;0.20;;;;;;;;;;5053761;28;20049;-70
2023/03/26 00:51:24;;;;;;;0.10;0.10;;;;;;;;;;5053412;28;20431;-72
2023/03/26 00:53:50;;;;;;;0.28;0.28;;;;;;;;;;5053346;28;20044;-69
2023/03/26 00:56:15;;;;;;;4.68;2.03;;;;;;;;;;5036791;28;20035;-70
2023/03/26 00:58:41;;;;;;;4.15;3.30;;;;;;;;;;5071616;28;20075;-71
2023/03/26 01:01:14;;;;;;;1.10;1.10;;;;;;;;;;5071459;28;20567;-70
2023/03/26 01:03:40;;;;;;;0.10;0.10;;;;;;;;;;5071448;28;20052;-70
2023/03/26 01:06:07;;;;;;;1.48;1.40;;;;;;;;;;5053937;28;20040;-69
2023/03/26 01:08:37;;;;;;;0.10;0.10;;;;;;;;;;5056804;28;20373;-69
2023/03/26 01:11:06;;;;;;;0.28;0.28;;;;;;;;;;5057010;28;20036;-69
2023/03/26 01:13:34;;;;;;;0.15;0.15;;;;;;;;;;5056857;28;20029;-69
2023/03/26 01:16:00;;;;;;;0.10;0.10;;;;;;;;;;5056664;28;20499;-68
2023/03/26 01:18:32;;;;;;;0.20;0.20;;;;;;;;;;5040073;28;20091;-68
2023/03/26 01:21:03;;;;;;;0.65;0.65;;;;;;;;;;5056540;28;20041;-69
2023/03/26 01:23:36;;;;;;;0.38;0.38;;;;;;;;;;5056698;28;20094;-69
2023/03/26 01:26:05;;;;;;;0.30;0.30;;;;;;;;;;5056670;28;20040;-69
2023/03/26 01:28:33;;;;;;;0.20;0.20;;;;;;;;;;5056559;28;20086;-69
2023/03/26 01:31:05;;;;;;;0.10;0.10;;;;;;;;;;5074390;28;20040;-69
2023/03/26 01:33:38;;;;;;;0.55;0.55;;;;;;;;;;5074310;28;20067;-70
2023/03/26 01:36:20;;;;;;;0.10;0.10;;;;;;;;;;5056611;28;20036;-69
2023/03/26 01:38:47;;;;;;;0.20;0.20;;;;;;;;;;5074318;28;20051;-69
2023/03/26 01:41:15;;;;;;;0.10;0.10;;;;;;;;;;5074405;28;20115;-69
2023/03/26 01:43:53;;;;;;;0.98;0.75;;;;;;;;;;5074147;28;20063;-71
2023/03/26 01:46:19;;;;;;;0.10;0.10;;;;;;;;;;5074227;28;20389;-68
2023/03/26 01:48:45;;;;;;;0.10;0.10;;;;;;;;;;5074198;28;20037;-69
2023/03/26 01:51:11;;;;;;;0.20;0.20;;;;;;;;;;5039576;28;20017;-70
2023/03/26 01:53:42;;;;;;;0.10;0.10;;;;;;;;;;5056244;28;20047;-69
2023/03/26 01:56:12;;;;;;;0.10;0.10;;;;;;;;;;5074435;28;20377;-70
2023/03/26 01:58:50;;;;;;;0.30;0.30;;;;;;;;;;5074207;28;20036;-69
2023/03/26 02:01:15;;;;;;;2.88;2.67;;;;;;;;;;5056199;28;20089;-69
2023/03/26 02:03:45;;;;;;;0.20;0.20;;;;;;;;;;5073682;28;20029;-72
2023/03/26 02:06:29;;;;;;;0.32;0.20;;;;;;;;;;5074212;28;20037;-71
2023/03/26 02:09:06;;;;;;;0.20;0.20;;;;;;;;;;5055885;28;20040;-70
2023/03/26 02:11:34;;;;;;;0.10;0.10;;;;;;;;;;5039383;28;20039;-69
2023/03/26 02:14:00;;;;;;;0.10;0.10;;;;;;;;;;5073890;28;20046;-69
2023/03/26 02:16:25;;;;;;;0.43;0.43;;;;;;;;;;5055863;28;20028;-69
2023/03/26 02:18:54;;;;;;;0.52;0.52;;;;;;;;;;5073566;28;20033;-69
2023/03/26 02:21:21;;;;;;;0.33;0.33;;;;;;;;;;5039370;28;20029;-69
2023/03/26 02:24:01;;;;;;;0.20;0.20;;;;;;;;;;5038843;28;20290;-69
2023/03/26 02:26:29;;;;;;;0.30;0.30;;;;;;;;;;5039322;28;20041;-69
2023/03/26 02:29:03;;;;;;;1.35;1.25;;;;;;;;;;5071180;28;20119;-69
2023/03/26 02:31:29;;;;;;;0.95;0.95;;;;;;;;;;5055509;28;20132;-69
2023/03/26 02:33:55;;;;;;;0.10;0.10;;;;;;;;;;5073285;28;20384;-70
2023/03/26 02:36:26;;;;;;;0.10;0.10;;;;;;;;;;5055323;28;20037;-70
2023/03/26 02:38:56;;;;;;;1.45;1.08;;;;;;;;;;5055672;28;20388;-69
2023/03/26 02:41:22;;;;;;;0.10;0.10;;;;;;;;;;5073413;28;20039;-69
2023/03/26 02:43:56;;;;;;;0.10;0.10;;;;;;;;;;5055383;28;20157;-69
2023/03/26 02:46:28;;;;;;;0.47;0.47;;;;;;;;;;5055268;28;20460;-68
2023/03/26 02:49:14;;;;;;;0.38;0.38;;;;;;;;;;5072551;28;20071;-71
2023/03/26 02:51:41;;;;;;;0.20;0.20;;;;;;;;;;5073106;28;20435;-71
2023/03/26 02:54:19;;;;;;;0.10;0.10;;;;;;;;;;5073072;28;20033;-70
2023/03/26 02:56:53;;;;;;;0.10;0.10;;;;;;;;;;5055019;28;20072;-71
2023/03/26 02:59:29;;;;;;;0.43;0.43;;;;;;;;;;5055317;28;20033;-71
2023/03/26 03:02:18;;;;;;;3.35;3.13;;;;;;;;;;5071906;28;20101;-71
2023/03/26 03:04:44;;;;;;;0.10;0.10;;;;;;;;;;5071057;28;20032;-71
2023/03/26 03:07:13;;;;;;;0.10;0.10;;;;;;;;;;5071287;28;20807;-71
2023/03/26 03:09:39;;;;;;;0.15;0.15;;;;;;;;;;5089353;28;20446;-70
2023/03/26 03:12:27;;;;;;;0.10;0.10;;;;;;;;;;5081025;28;20448;-70
2023/03/26 03:14:52;;;;;;;0.10;0.10;;;;;;;;;;5089241;28;20036;-74
2023/03/26 03:17:19;;;;;;;0.47;0.47;;;;;;;;;;5070957;28;20483;-68
2023/03/26 03:19:45;;;;;;;0.10;0.10;;;;;;;;;;5054537;28;20059;-69
2023/03/26 03:22:11;;;;;;;0.10;0.10;;;;;;;;;;5070822;28;20570;-70
2023/03/26 03:24:42;;;;;;;0.10;0.10;;;;;;;;;;5070837;28;20035;-70
2023/03/26 03:27:08;;;;;;;0.68;0.68;;;;;;;;;;5071058;28;20089;-70
2023/03/26 03:29:38;;;;;;;0.10;0.10;;;;;;;;;;5070254;28;20047;-70
2023/03/26 03:32:42;;;;;;;0.10;0.10;;;;;;;;;;5088334;28;20036;-70
2023/03/26 03:35:08;;;;;;;0.17;0.17;;;;;;;;;;5070478;28;20032;-70
2023/03/26 03:37:34;;;;;;;0.10;0.10;;;;;;;;;;5070755;28;20034;-70
2023/03/26 03:39:59;;;;;;;0.10;0.10;;;;;;;;;;5070573;28;20036;-69
2023/03/26 03:42:28;;;;;;;0.10;0.10;;;;;;;;;;5070614;28;20032;-69
2023/03/26 03:44:56;;;;;;;0.25;0.25;;;;;;;;;;5069625;28;20036;-71
2023/03/26 03:47:44;;;;;;;0.10;0.10;;;;;;;;;;5080491;28;20056;-70
2023/03/26 03:50:12;;;;;;;0.10;0.10;;;;;;;;;;5070267;28;20126;-70
2023/03/26 03:52:45;;;;;;;0.10;0.10;;;;;;;;;;5055076;28;20038;-73
2023/03/26 03:55:14;;;;;;;0.10;0.10;;;;;;;;;;5053834;28;20036;-70
2023/03/26 03:57:45;;;;;;;0.10;0.10;;;;;;;;;;5070468;28;20119;-70
2023/03/26 04:00:16;;;;;;;0.10;0.10;;;;;;;;;;5071035;28;20044;-69
2023/03/26 04:02:44;;;;;;;1.20;1.00;;;;;;;;;;5088357;28;20075;-69
2023/03/26 04:05:11;;;;;;;5.43;1.80;;;;;;;;;;5070106;28;20127;-72
2023/03/26 04:07:42;;;;;;;6.68;6.28;;;;;;;;;;5070352;28;20063;-70
2023/03/26 04:10:22;;;;;;;0.45;0.45;;;;;;;;;;5088293;28;20495;-69
2023/03/26 04:13:06;;;;;;;0.32;0.32;;;;;;;;;;5088705;28;20063;-70
2023/03/26 04:15:50;;;;;;;0.30;0.30;;;;;;;;;;5070421;28;20483;-70
2023/03/26 04:18:16;;;;;;;0.10;0.10;;;;;;;;;;5070216;28;20047;-71
2023/03/26 04:20:48;;;;;;;0.65;0.65;;;;;;;;;;5069955;28;20132;-70
2023/03/26 04:23:23;;;;;;;0.13;0.13;;;;;;;;;;5069938;28;20555;-70
2023/03/26 04:25:56;;;;;;;0.20;0.20;;;;;;;;;;5070245;28;20032;-70
2023/03/26 04:28:42;;;;;;;0.10;0.10;;;;;;;;;;5070010;28;20036;-69
2023/03/26 04:31:22;;;;;;;0.10;0.10;;;;;;;;;;5069877;28;20533;-70
2023/03/26 04:33:49;;;;;;;0.40;0.40;;;;;;;;;;5069867;28;20039;-71
2023/03/26 04:36:16;;;;;;;2.00;1.85;;;;;;;;;;5069658;28;20032;-70
2023/03/26 04:38:44;;;;;;;0.10;0.10;;;;;;;;;;5069439;28;20043;-73
2023/03/26 04:41:11;;;;;;;0.10;0.10;;;;;;;;;;5070200;28;20123;-70
2023/03/26 04:44:00;;;;;;;1.63;1.58;;;;;;;;;;5073206;28;20097;-70
2023/03/26 04:46:34;;;;;;;0.10;0.10;;;;;;;;;;5091283;28;20411;-70
2023/03/26 04:49:08;;;;;;;0.20;0.20;;;;;;;;;;5073042;28;20903;-69
2023/03/26 04:51:37;;;;;;;0.85;0.85;;;;;;;;;;5090831;28;20036;-69
2023/03/26 04:54:11;;;;;;;0.15;0.15;;;;;;;;;;5072833;28;20044;-72
2023/03/26 04:57:01;;;;;;;0.10;0.10;;;;;;;;;;5076211;28;20032;-70
2023/03/26 04:59:50;;;;;;;0.20;0.20;;;;;;;;;;5073046;28;20043;-69
2023/03/26 05:02:16;;;;;;;0.10;0.10;;;;;;;;;;5072837;28;20379;-71
2023/03/26 05:04:51;;;;;;;5.28;1.30;;;;;;;;;;5057200;28;20055;-70
2023/03/26 05:07:19;;;;;;;0.10;0.10;;;;;;;;;;5072893;28;20043;-70
2023/03/26 05:09:48;;;;;;;0.10;0.10;;;;;;;;;;5072682;28;20084;-71
2023/03/26 05:12:15;;;;;;;0.45;0.45;;;;;;;;;;5072766;28;20125;-70
2023/03/26 05:14:51;;;;;;;0.28;0.28;;;;;;;;;;5072495;28;20047;-71
2023/03/26 05:17:33;;;;;;;0.20;0.20;;;;;;;;;;5072623;28;20845;-70
2023/03/26 05:20:00;;;;;;;0.65;0.65;;;;;;;;;;5090867;28;20028;-71
2023/03/26 05:22:25;;;;;;;0.10;0.10;;;;;;;;;;5072240;28;20105;-70
2023/03/26 05:25:11;;;;;;;0.10;0.10;;;;;;;;;;5089670;28;20043;-69
2023/03/26 05:27:37;;;;;;;2.45;1.35;;;;;;;;;;5089571;28;20039;-70
2023/03/26 05:30:03;;;;;;;0.22;0.22;;;;;;;;;;5090770;28;20024;-69
2023/03/26 05:32:33;;;;;;;0.10;0.10;;;;;;;;;;5072007;28;20032;-73
2023/03/26 05:34:59;;;;;;;0.30;0.30;;;;;;;;;;5072429;28;20046;-69
2023/03/26 05:37:29;;;;;;;0.10;0.10;;;;;;;;;;5090136;28;20024;-75
2023/03/26 05:40:02;;;;;;;0.10;0.10;;;;;;;;;;5056525;28;20055;-69
2023/03/26 05:42:50;;;;;;;0.10;0.10;;;;;;;;;;5072416;28;20067;-69
2023/03/26 05:45:32;;;;;;;1.98;1.05;;;;;;;;;;5072113;28;20032;-72
2023/03/26 05:48:05;;;;;;;1.25;0.75;;;;;;;;;;5072709;28;20532;-70
2023/03/26 05:50:31;;;;;;;0.10;0.10;;;;;;;;;;5090483;28;20036;-69
2023/03/26 05:52:58;;;;;;;3.08;2.88;;;;;;;;;;5071701;28;20020;-69
2023/03/26 05:56:03;;;;;;;1.85;1.75;;;;;;;;;;5028208;28;20117;-70
2023/03/26 05:58:35;;;;;;;1.70;1.60;;;;;;;;;;5027930;28;20041;-70
2023/03/26 06:01:19;;;;;;;0.13;0.13;;;;;;;;;;5067731;28;20047;-69
2023/03/26 06:04:17;;;;;;;1.85;1.75;;;;;;;;;;5055976;28;20534;-70
2023/03/26 06:07:00;;;;;;;0.25;0.25;;;;;;;;;;5071968;28;20036;-70
2023/03/26 06:09:26;;;;;;;2.03;1.20;;;;;;;;;;5071482;28;20070;-71
2023/03/26 06:11:51;;;;;;;0.47;0.47;;;;;;;;;;5055084;28;20074;-71
2023/03/26 06:14:17;;;;;;;0.35;0.35;;;;;;;;;;5072319;28;20541;-71
2023/03/26 06:17:02;;;;;;;0.10;0.10;;;;;;;;;;5089203;28;20032;-72
2023/03/26 06:19:34;;;;;;;2.83;0.45;;;;;;;;;;5055656;28;20032;-73
2023/03/26 06:22:09;;;;;;;0.20;0.20;;;;;;;;;;5056575;28;20353;-71
2023/03/26 06:24:58;;;;;;;0.10;0.10;;;;;;;;;;5078938;28;20087;-71
2023/03/26 06:27:58;;;;;;;4.85;1.05;;;;;;;;;;5026135;28;20107;-70
2023/03/26 06:30:36;;;;;;;0.10;0.10;;;;;;;;;;5065290;28;20051;-74
2023/03/26 06:33:18;;;;;;;0.17;0.17;;;;;;;;;;5071657;28;20114;-70
2023/03/26 06:35:48;;;;;;;0.30;0.30;;;;;;;;;;5055280;28;20032;-72
2023/03/26 06:38:15;;;;;;;1.05;0.95;;;;;;;;;;5071085;28;20036;-71
2023/03/26 06:40:40;;;;;;;0.32;0.32;;;;;;;;;;5071108;28;20395;-71
2023/03/26 06:43:24;;;;;;;0.32;0.32;;;;;;;;;;5089103;28;20048;-70
2023/03/26 06:46:03;;;;;;;0.45;0.45;;;;;;;;;;5071179;28;20032;-69
2023/03/26 06:48:37;;;;;;;1.30;1.20;;;;;;;;;;5089696;28;20390;-70
2023/03/26 06:51:32;;;;;;;0.20;0.20;;;;;;;;;;5062954;28;20047;-69
2023/03/26 06:54:06;;;;;;;2.83;0.90;;;;;;;;;;5088679;28;20089;-70
2023/03/26 06:56:43;;;;;;;1.30;0.52;;;;;;;;;;5070509;28;20036;-68
2023/03/26 06:59:23;;;;;;;0.35;0.35;;;;;;;;;;5065402;28;20127;-69
2023/03/26 07:02:09;;;;;;;7.13;4.70;;;;;;;;;;5089586;28;20518;-69
2023/03/26 07:04:53;;;;;;;2.05;1.95;;;;;;;;;;5073075;28;20514;-69
2023/03/26 07:07:37;;;;;;;6.00;1.30;;;;;;;;;;5074265;28;20081;-69
2023/03/26 07:10:21;;;;;;;0.80;0.80;;;;;;;;;;5089470;28;20066;-69
2023/03/26 07:13:10;;;;;;;1.67;0.28;;;;;;;;;;5080741;28;20364;-70
2023/03/26 07:15:54;;;;;;;3.33;2.38;;;;;;;;;;5089351;28;20126;-70
2023/03/26 07:18:42;;;;;;;0.13;0.13;;;;;;;;;;5071146;28;20028;-70
2023/03/26 07:21:11;;;;;;;;;;;;;;;;;;5071338;28;20071;-75
2023/03/26 07:23:37;;;;;;;0.93;0.93;;;;;;;;;;5088428;28;19955;-69
2023/03/26 07:26:45;;;;;;;4.63;4.20;;;;;;;;;;5077571;28;20048;-68
2023/03/26 07:29:19;;;;;;;1.38;1.08;;;;;;;;;;5071088;28;20130;-70
2023/03/26 07:32:17;;;;;;;0.20;0.20;;;;;;;;;;5088166;28;20071;-68
2023/03/26 07:35:02;;;;;;;0.32;0.30;;;;;;;;;;5071125;28;20050;-69
2023/03/26 07:37:28;;;;;;;0.20;0.20;;;;;;;;;;5088474;28;20048;-69
2023/03/26 07:40:18;;;;;;;0.95;0.95;;;;;;;;;;5073354;28;20078;-69
2023/03/26 07:43:23;;;;;;;0.10;0.10;;;;;;;;;;5077604;28;20491;-70
2023/03/26 07:45:48;;;;;;;12.45;11.65;;;;;;;;;;5088572;28;20068;-70
2023/03/26 07:48:28;;;;;;;;;;;;;;;;;;5071026;28;20074;-70
2023/03/26 07:51:14;;;;;;;0.65;0.30;;;;;;;;;;5087798;28;19957;-69
2023/03/26 07:53:50;;;;;;;0.30;0.30;;;;;;;;;;5070398;28;20032;-70
2023/03/26 07:56:41;;;;;;;0.10;0.10;;;;;;;;;;5063438;28;20344;-69
2023/03/26 07:59:28;;;;;;;0.20;0.20;;;;;;;;;;5088267;28;20114;-69
2023/03/26 08:02:15;;;;;;;0.15;0.15;;;;;;;;;;5073171;28;20054;-69
2023/03/26 08:04:55;;;;;;;0.30;0.30;;;;;;;;;;5070182;28;20062;-69
2023/03/26 08:07:34;;;;;;;0.10;0.10;;;;;;;;;;5070315;28;20044;-70
2023/03/26 08:10:22;;;;;;;0.20;0.20;;;;;;;;;;5070330;28;20046;-69
2023/03/26 08:13:05;;;;;;;0.75;0.68;;;;;;;;;;5070270;28;20038;-69
2023/03/26 08:15:37;;;;;;;0.30;0.30;;;;;;;;;;5071234;28;20082;-69
2023/03/26 08:18:09;;;;;;;0.20;0.20;;;;;;;;;;5073798;28;20043;-67
2023/03/26 08:20:48;;;;;;;0.30;0.30;;;;;;;;;;5092006;28;20036;-68
2023/03/26 08:23:14;;;;;;;;;;;;;;;;;;5073839;28;20050;-69
2023/03/26 08:26:09;;;;;;;1.25;1.15;;;;;;;;;;5056748;28;19912;-71
2023/03/26 08:29:14;;;;;;;0.22;0.22;;;;;;;;;;5052556;28;20075;-69
2023/03/26 08:31:41;;;;;;;0.20;0.20;;;;;;;;;;4989782;28;20121;-70
2023/03/26 08:34:09;;;;;;;0.20;0.20;;;;;;;;;;4989914;28;20054;-69
2023/03/26 08:36:35;;;;;;;0.93;0.60;;;;;;;;;;5040463;28;20119;-70
2023/03/26 08:39:01;;;;;;;0.73;0.73;;;;;;;;;;5091424;28;20055;-70
2023/03/26 08:41:45;;;;;;;0.35;0.35;;;;;;;;;;5056521;28;20024;-69
2023/03/26 08:44:13;;;;;;;0.20;0.20;;;;;;;;;;5091229;28;20040;-68
2023/03/26 08:46:39;;;;;;;0.55;0.52;;;;;;;;;;5091368;28;20399;-69
2023/03/26 08:49:07;;;;;;;0.30;0.30;;;;;;;;;;5091206;28;20020;-69
2023/03/26 08:51:51;;;;;;;0.55;0.43;;;;;;;;;;5091233;28;20052;-69
2023/03/26 08:54:20;;;;;;;4.47;1.63;;;;;;;;;;5091276;28;20476;-69
2023/03/26 08:56:51;;;;;;;0.90;0.90;;;;;;;;;;5090742;28;20040;-69
2023/03/26 08:59:35;;;;;;;2.70;0.52;;;;;;;;;;5091049;28;20028;-70
2023/03/26 09:02:19;;;;;;;0.63;0.63;;;;;;;;;;5091240;28;20036;-70
2023/03/26 09:04:45;;;;;;;3.22;2.05;;;;;;;;;;5091262;28;20118;-70
2023/03/26 09:07:16;;;;;;;3.35;0.70;;;;;;;;;;5090955;28;20563;-73
2023/03/26 09:09:56;;;;;;;0.50;0.50;;;;;;;;;;5072652;28;20085;-73
2023/03/26 09:12:45;;;;;;;2.03;0.55;;;;;;;;;;5091192;28;20903;-74
2023/03/26 09:15:19;;;;;;;1.07;0.70;;;;;;;;;;5078028;28;20450;-75
2023/03/26 09:17:48;;;;;;;0.82;0.40;;;;;;;;;;5091079;28;20093;-73
2023/03/26 09:20:32;;;;;;;0.43;0.43;;;;;;;;;;5072992;28;20085;-73
2023/03/26 09:22:58;;;;;;;1.63;1.33;;;;;;;;;;5072804;28;20657;-73
2023/03/26 09:25:42;;;;;;;1.95;0.80;;;;;;;;;;5090555;28;20028;-73
2023/03/26 09:28:25;;;;;;;0.10;0.10;;;;;;;;;;5090219;28;20109;-74
2023/03/26 09:31:10;;;;;;;0.20;0.20;;;;;;;;;;5091031;28;20126;-73
2023/03/26 09:33:35;;;;;;;0.43;0.43;;;;;;;;;;5072882;28;20029;-73
2023/03/26 09:36:03;;;;;;;2.45;1.02;;;;;;;;;;5090435;28;20036;-72
2023/03/26 09:38:47;;;;;;;7.65;1.00;;;;;;;;;;5090651;28;20036;-73
2023/03/26 09:41:14;;;;;;;2.47;1.45;;;;;;;;;;5072254;28;20039;-74
2023/03/26 09:43:47;;;;;;;0.95;0.73;;;;;;;;;;5072663;28;20119;-71
2023/03/26 09:46:16;;;;;;;0.20;0.20;;;;;;;;;;5055813;28;20068;-73
2023/03/26 09:48:41;;;;;;;1.08;0.43;;;;;;;;;;5072461;28;20387;-73
2023/03/26 09:51:13;;;;;;;0.30;0.30;;;;;;;;;;5090563;28;20036;-72
2023/03/26 09:53:45;;;;;;;6.05;1.60;;;;;;;;;;5090577;28;20036;-72
2023/03/26 09:56:14;;;;;;;0.35;0.28;;;;;;;;;;5072415;28;20024;-73
2023/03/26 09:58:42;;;;;;;1.60;0.63;;;;;;;;;;5055426;28;20047;-74
2023/03/26 10:01:13;;;;;;;1.02;0.75;;;;;;;;;;5072484;28;20028;-72
2023/03/26 10:03:39;;;;;;;0.70;0.32;;;;;;;;;;5055368;28;20040;-72
2023/03/26 10:06:20;;;;;;;0.40;0.35;;;;;;;;;;5090375;28;20035;-73
2023/03/26 10:09:06;;;;;;;0.30;0.30;;;;;;;;;;5072196;28;20090;-74
2023/03/26 10:11:52;;;;;;;1.40;1.33;;;;;;;;;;5071891;28;20043;-74
2023/03/26 10:14:21;;;;;;;0.85;0.73;;;;;;;;;;5072336;28;20115;-74
2023/03/26 10:17:09;;;;;;;1.95;0.75;;;;;;;;;;5072303;28;20038;-75
2023/03/26 10:19:46;;;;;;;1.25;0.75;;;;;;;;;;5089886;28;20073;-73
2023/03/26 10:22:24;;;;;;;1.33;0.82;;;;;;;;;;5071788;28;20040;-74
2023/03/26 10:25:08;;;;;;;5.30;1.27;;;;;;;;;;5072072;28;20067;-74
2023/03/26 10:28:00;;;;;;;9.93;0.43;;;;;;;;;;5071308;28;20036;-74
2023/03/26 10:30:44;;;;;;;0.63;0.47;;;;;;;;;;5066516;28;20051;-74
2023/03/26 10:33:19;;;;;;;2.10;1.17;;;;;;;;;;5071697;28;20043;-74
2023/03/26 10:35:48;;;;;;;2.97;1.05;;;;;;;;;;5089704;28;20028;-74
2023/03/26 10:38:21;;;;;;;0.45;0.45;;;;;;;;;;5071435;28;20028;-74
2023/03/26 10:40:56;;;;;;;3.03;1.55;;;;;;;;;;5054763;28;20115;-73
2023/03/26 10:43:25;;;;;;;1.67;0.88;;;;;;;;;;5089267;28;20036;-77
2023/03/26 10:45:51;;;;;;;0.10;0.10;;;;;;;;;;5054995;28;20487;-72
2023/03/26 10:48:35;;;;;;;0.60;0.50;;;;;;;;;;5071306;28;20024;-73
2023/03/26 10:51:15;;;;;;;0.22;0.22;;;;;;;;;;5055056;28;20036;-72
2023/03/26 10:53:41;;;;;;;0.30;0.30;;;;;;;;;;5071399;28;20024;-72
2023/03/26 10:56:16;;;;;;;0.20;0.20;;;;;;;;;;5071034;28;20478;-77
2023/03/26 10:58:42;;;;;;;0.40;0.40;;;;;;;;;;5071818;28;20046;-74
2023/03/26 11:01:14;;;;;;;4.70;0.95;;;;;;;;;;5089279;28;20032;-72
2023/03/26 11:03:50;;;;;;;0.28;0.28;;;;;;;;;;5089591;28;20042;-73
2023/03/26 11:06:25;;;;;;;2.80;1.27;;;;;;;;;;5054253;28;20119;-74
2023/03/26 11:08:57;;;;;;;0.38;0.38;;;;;;;;;;5071527;28;20123;-72
2023/03/26 11:11:31;;;;;;;1.52;0.45;;;;;;;;;;5088852;28;20081;-72
2023/03/26 11:14:15;;;;;;;0.10;0.10;;;;;;;;;;5070999;28;20051;-74
2023/03/26 11:17:19;;;;;;;2.08;0.82;;;;;;;;;;5070526;28;20118;-72
2023/03/26 11:19:51;;;;;;;4.13;1.75;;;;;;;;;;4987605;28;20060;-73
2023/03/26 11:22:37;;;;;;;1.58;0.93;;;;;;;;;;4987571;28;20045;-72
2023/03/26 11:25:12;;;;;;;1.27;1.17;;;;;;;;;;5042052;28;20511;-72
2023/03/26 11:27:44;;;;;;;0.35;0.35;;;;;;;;;;5089235;28;20584;-76
2023/03/26 11:30:25;;;;;;;6.65;2.40;;;;;;;;;;5071230;28;20364;-73
2023/03/26 11:32:53;;;;;;;0.28;0.28;;;;;;;;;;5088331;28;20116;-73
2023/03/26 11:35:21;;;;;;;0.30;0.30;;;;;;;;;;5087348;28;20032;-72
2023/03/26 11:37:51;;;;;;;0.30;0.30;;;;;;;;;;5087520;28;20082;-75
2023/03/26 11:40:23;;;;;;;4.78;0.50;;;;;;;;;;5088090;28;20143;-72
2023/03/26 11:42:50;;;;;;;0.22;0.22;;;;;;;;;;5087656;28;20479;-74
2023/03/26 11:45:21;;;;;;;0.77;0.68;;;;;;;;;;5087574;28;20032;-74
2023/03/26 11:47:50;;;;;;;7.40;2.05;;;;;;;;;;5052739;28;20428;-73
2023/03/26 11:50:26;;;;;;;3.23;1.53;;;;;;;;;;5068576;28;20114;-72
2023/03/26 11:53:10;;;;;;;1.17;1.02;;;;;;;;;;5069637;28;20044;-73
2023/03/26 11:55:39;;;;;;;1.98;0.70;;;;;;;;;;5052277;28;20028;-74
2023/03/26 11:58:21;;;;;;;2.35;0.57;;;;;;;;;;5069268;28;20032;-73
2023/03/26 12:00:47;;;;;;;0.40;0.40;;;;;;;;;;5069218;28;20049;-73
2023/03/26 12:03:16;;;;;;;0.20;0.20;;;;;;;;;;5086805;28;20225;-72
2023/03/26 12:05:56;;;;;;;1.10;0.50;;;;;;;;;;5087308;28;20115;-72
2023/03/26 12:08:28;;;;;;;2.13;0.98;;;;;;;;;;5087442;28;20032;-75
2023/03/26 12:11:00;;;;;;;0.30;0.30;;;;;;;;;;5066080;28;20035;-71
2023/03/26 12:13:25;;;;;;;1.75;0.60;;;;;;;;;;5048782;28;20476;-74
2023/03/26 12:15:56;;;;;;;0.20;0.20;;;;;;;;;;5067085;28;20035;-74
2023/03/26 12:18:25;;;;;;;0.20;0.20;;;;;;;;;;5067039;28;20028;-73
2023/03/26 12:20:50;;;;;;;;;;;;;;;;;;5067282;28;20039;-75
2023/03/26 12:23:48;;;;;;;3.17;0.93;;;;;;;;;;5066491;28;19912;-74
2023/03/26 12:26:30;;;;;;;5.40;1.38;;;;;;;;;;4995013;28;20294;-74
2023/03/26 12:28:55;;;;;;;0.85;0.45;;;;;;;;;;5049908;28;20043;-74
2023/03/26 12:31:21;;;;;;;0.60;0.60;;;;;;;;;;5067541;28;20022;-73
2023/03/26 12:34:01;;;;;;;0.22;0.22;;;;;;;;;;5067796;28;20433;-74
2023/03/26 12:36:29;;;;;;;4.90;0.47;;;;;;;;;;5068129;28;20106;-74
2023/03/26 12:38:55;;;;;;;5.10;1.10;;;;;;;;;;5049802;28;20037;-74
2023/03/26 12:41:32;;;;;;;0.20;0.20;;;;;;;;;;5067486;28;20025;-75
2023/03/26 12:44:14;;;;;;;0.30;0.30;;;;;;;;;;5067861;28;20048;-73
2023/03/26 12:46:44;;;;;;;0.20;0.20;;;;;;;;;;5067753;28;20051;-77
2023/03/26 12:49:10;;;;;;;0.38;0.38;;;;;;;;;;5049791;28;20044;-73
2023/03/26 12:51:57;;;;;;;1.33;0.50;;;;;;;;;;5067331;28;20040;-74
2023/03/26 12:54:27;;;;;;;1.38;0.35;;;;;;;;;;5067599;28;20154;-74
2023/03/26 12:57:06;;;;;;;0.55;0.38;;;;;;;;;;5067569;28;20120;-72
2023/03/26 12:59:39;;;;;;;0.20;0.20;;;;;;;;;;5067377;28;20356;-72
2023/03/26 13:02:42;;;;;;;0.20;0.20;;;;;;;;;;5050054;28;20098;-73
2023/03/26 13:05:26;;;;;;;0.47;0.30;;;;;;;;;;4970488;28;20046;-71
2023/03/26 13:08:04;;;;;;;0.65;0.45;;;;;;;;;;5063326;28;20056;-72
2023/03/26 13:10:36;;;;;;;0.35;0.35;;;;;;;;;;5053151;28;20025;-73
2023/03/26 13:13:20;;;;;;;0.50;0.50;;;;;;;;;;5070829;28;20032;-72
2023/03/26 13:15:51;;;;;;;0.30;0.30;;;;;;;;;;5071001;28;20032;-73
2023/03/26 13:18:37;;;;;;;0.30;0.30;;;;;;;;;;5053167;28;20115;-74
2023/03/26 13:21:18;;;;;;;2.22;0.55;;;;;;;;;;5070895;28;20806;-77
2023/03/26 13:23:50;;;;;;;0.20;0.20;;;;;;;;;;5052984;28;20052;-73
2023/03/26 13:26:39;;;;;;;0.20;0.20;;;;;;;;;;5070762;28;20089;-74
2023/03/26 13:29:19;;;;;;;0.35;0.35;;;;;;;;;;5052735;28;20032;-74
2023/03/26 13:31:53;;;;;;;0.17;0.17;;;;;;;;;;5070510;28;20032;-74
2023/03/26 13:34:28;;;;;;;0.20;0.20;;;;;;;;;;5070708;28;20028;-74
2023/03/26 13:37:05;;;;;;;0.38;0.32;;;;;;;;;;5070416;28;20423;-74
2023/03/26 13:39:44;;;;;;;2.67;0.75;;;;;;;;;;5070770;28;20037;-74
2023/03/26 13:42:10;;;;;;;1.13;0.22;;;;;;;;;;5070493;28;20032;-74
2023/03/26 13:44:35;;;;;;;0.20;0.20;;;;;;;;;;5070242;28;20434;-74
2023/03/26 13:47:03;;;;;;;0.20;0.20;;;;;;;;;;5083373;28;20387;-77
2023/03/26 13:49:36;;;;;;;0.20;0.20;;;;;;;;;;5090650;28;20428;-73
2023/03/26 13:52:08;;;;;;;2.05;0.93;;;;;;;;;;5072937;28;20515;-73
2023/03/26 13:54:35;;;;;;;1.30;1.20;;;;;;;;;;5090640;28;20044;-75
2023/03/26 13:57:08;;;;;;;0.20;0.20;;;;;;;;;;5090323;28;20024;-74
2023/03/26 13:59:49;;;;;;;3.08;1.08;;;;;;;;;;5090333;28;20569;-74
2023/03/26 14:02:35;;;;;;;0.30;0.30;;;;;;;;;;5090165;28;20043;-73
2023/03/26 14:05:12;;;;;;;0.20;0.20;;;;;;;;;;5089547;28;20052;-73
2023/03/26 14:07:41;;;;;;;0.32;0.32;;;;;;;;;;5090354;28;20454;-73
2023/03/26 14:10:09;;;;;;;0.20;0.20;;;;;;;;;;5089928;28;20028;-75
2023/03/26 14:12:37;;;;;;;0.22;0.22;;;;;;;;;;5089676;28;20028;-73
2023/03/26 14:15:12;;;;;;;0.45;0.30;;;;;;;;;;5090257;28;20114;-73
2023/03/26 14:17:57;;;;;;;0.38;0.38;;;;;;;;;;5090137;28;20032;-73
2023/03/26 14:20:36;;;;;;;0.20;0.20;;;;;;;;;;5090098;28;20046;-73
2023/03/26 14:23:20;;;;;;;0.55;0.35;;;;;;;;;;5071802;28;20055;-72
2023/03/26 14:26:03;;;;;;;0.30;0.30;;;;;;;;;;5086585;28;20024;-73
2023/03/26 14:29:01;;;;;;;0.47;0.40;;;;;;;;;;5052313;28;20044;-73
2023/03/26 14:31:46;;;;;;;0.20;0.20;;;;;;;;;;5024989;28;20051;-73
2023/03/26 14:34:22;;;;;;;0.43;0.43;;;;;;;;;;5069709;28;20039;-73
2023/03/26 14:36:48;;;;;;;0.73;0.50;;;;;;;;;;5069964;28;20029;-73
2023/03/26 14:39:26;;;;;;;0.20;0.20;;;;;;;;;;5069349;28;20028;-73
2023/03/26 14:41:58;;;;;;;0.20;0.20;;;;;;;;;;5035152;28;20484;-74
2023/03/26 14:44:35;;;;;;;0.20;0.20;;;;;;;;;;5051834;28;20159;-73
2023/03/26 14:47:07;;;;;;;2.40;0.45;;;;;;;;;;5069321;28;20036;-72
2023/03/26 14:49:52;;;;;;;0.22;0.22;;;;;;;;;;5069162;28;20040;-73
2023/03/26 14:52:44;;;;;;;0.30;0.30;;;;;;;;;;5069386;28;20043;-72
2023/03/26 14:55:15;;;;;;;3.72;1.58;;;;;;;;;;5065496;28;20127;-73
2023/03/26 14:57:53;;;;;;;0.20;0.20;;;;;;;;;;5051594;28;20039;-72
2023/03/26 15:00:37;;;;;;;0.10;0.10;;;;;;;;;;5069155;28;20074;-72
2023/03/26 15:03:37;;;;;;;0.20;0.20;;;;;;;;;;5068845;28;20036;-73
2023/03/26 15:06:11;;;;;;;0.22;0.22;;;;;;;;;;5025486;28;20048;-72
2023/03/26 15:09:16;;;;;;;1.42;0.45;;;;;;;;;;5068982;28;20028;-74
2023/03/26 15:11:57;;;;;;;1.17;1.00;;;;;;;;;;4987778;28;20030;-74
2023/03/26 15:14:34;;;;;;;1.35;0.35;;;;;;;;;;4987687;28;20104;-73
2023/03/26 15:17:09;;;;;;;0.10;0.10;;;;;;;;;;5040449;28;20040;-74
2023/03/26 15:19:38;;;;;;;0.88;0.35;;;;;;;;;;5050845;28;20032;-74
2023/03/26 15:22:42;;;;;;;0.35;0.30;;;;;;;;;;5069054;28;20065;-77
2023/03/26 15:25:19;;;;;;;0.20;0.20;;;;;;;;;;4986342;28;20124;-75
2023/03/26 15:28:03;;;;;;;0.20;0.20;;;;;;;;;;4987168;28;20092;-74